This is the latest recevied weather packets stored in our database for station/object OSTR-WX. If no packets are shown the sender has not sent any weather packets the latest 10 day(s).
| Time | Temp. | Humidity | Pressure | Rain* | Wind** | Luminosity | Snow |
|---|---|---|---|---|---|---|---|
| 1777609001 | 7.22° C | 77% | 1029.1 hPa | - | - | - | - |
| 1777608994 | 7.22° C | 77% | 1029.1 hPa | - | - | - | - |
| 1777608045 | 7.22° C | 76% | 1029.1 hPa | - | - | - | - |
| 1777608037 | 7.22° C | 76% | 1029.1 hPa | - | - | - | - |
| 1777607081 | 7.22° C | 78% | 1029.1 hPa | - | - | - | - |
| 1777606125 | 7.22° C | 76% | 1029.2 hPa | - | - | - | - |
| 1777605166 | 6.67° C | 77% | 1029.3 hPa | - | - | - | - |
| 1777604209 | 6.67° C | 77% | 1029.2 hPa | - | - | - | - |
| 1777603252 | 6.67° C | 78% | 1029.3 hPa | - | - | - | - |
| 1777602295 | 6.67° C | 76% | 1029.3 hPa | - | - | - | - |
| 1777601338 | 6.67° C | 76% | 1029.3 hPa | - | - | - | - |
| 1777586026 | 7.78° C | 68% | 1029.6 hPa | - | - | - | - |
| 1777584112 | 7.22° C | 67% | 1029.7 hPa | - | - | - | - |
| 1777583155 | 7.22° C | 64% | 1029.9 hPa | - | - | - | - |
| 1777581240 | 6.67° C | 65% | 1030 hPa | - | - | - | - |
| 1777580284 | 6.67° C | 65% | 1029.9 hPa | - | - | - | - |
| 1777579328 | 7.78° C | 60% | 1029.7 hPa | - | - | - | - |
| 1777578372 | 8.33° C | 57% | 1029.6 hPa | - | - | - | - |
| 1777577420 | 8.89° C | 55% | 1029.4 hPa | - | - | - | - |
| 1777577413 | 8.89° C | 55% | 1029.4 hPa | - | - | - | - |
| 1777576461 | 9.44° C | 55% | 1029.4 hPa | - | - | - | - |
| 1777572635 | 0° C | 100% | 0 hPa | - | - | - | - |
| 1777572632 | 0° C | 100% | 0 hPa | - | - | - | - |
| 1777570714 | 12.22° C | 36% | 1028.3 hPa | - | - | - | - |
| 1777565929 | 16.67° C | 28% | 1027.7 hPa | - | - | - | - |
* Rain since midnight (hover to see other rain measurements)
** Current wind speed in m/s (hover to see current wind gust speed)